SQ4LOL-15 Weather Reports


Display with metric or nautical units.
time (UTC)temp
F
wind
direction
speed
MPH
gust
MPH
rain 1hr
in
rain 24hr
in
rain mn
in
humidity
%
barometer
mb
20260906002502 55 0.0 0.0 0.00 0.00 0.00 82 993.3
20260906001502 55 0.0 0.0 0.00 0.00 0.00 82 993.3
20260906000502 55 0.0 0.0 0.00 0.00 0.00 82 993.2
20260905234502 55 0.0 0.0 0.00 0.00 0.00 82 993.1
20260905233502 55 0.0 0.0 0.00 0.00 0.00 82 993.1
20260905232502 55 0.0 0.0 0.00 0.00 0.00 82 993.1
20260905231502 55 0.0 0.0 0.00 0.00 0.00 82 993.0
20260905230502 55 0.0 0.0 0.00 0.00 0.00 82 993.1
20260905225502 55 0.0 0.0 0.00 0.00 0.00 82 993.1
20260905224502 55 0.0 0.0 0.00 0.00 0.00 82 993.1
20260905223502 55 0.0 0.0 0.00 0.00 0.00 82 993.1
20260905222502 55 0.0 0.0 0.00 0.00 0.00 82 993.1
20260905221502 55 0.0 0.0 0.00 0.00 0.00 82 993.1
20260905220502 55 0.0 0.0 0.00 0.00 0.00 82 993.1
20260905215502 54 0.0 0.0 0.00 0.00 0.00 82 993.0
20260905214502 54 0.0 0.0 0.00 0.00 0.00 82 993.1
20260905213502 54 0.0 0.0 0.00 0.00 0.00 82 993.1
20260905212502 54 0.0 0.0 0.00 0.00 0.00 82 993.3
20260905211502 54 0.0 0.0 0.00 0.00 0.00 82 993.3
20260905210502 53 0.0 0.0 0.00 0.00 0.00 81 993.1
20260905205502 53 0.0 0.0 0.00 0.00 0.00 81 993.1
20260905204502 52 0.0 0.0 0.00 0.00 0.00 81 993.2
20260905203502 52 0.0 0.0 0.00 0.00 0.00 81 993.2
20260905202502 52 0.0 0.0 0.00 0.00 0.00 81 993.1
20260905200502 53 0.0 0.0 0.00 0.00 0.00 81 993.2
20260905195502 52 0.0 0.0 0.00 0.00 0.00 81 993.1
20260905194502 52 0.0 0.0 0.00 0.00 0.00 81 993.3
20260905193502 52 0.0 0.0 0.00 0.00 0.00 81 993.3
20260905192502 52 0.0 0.0 0.00 0.00 0.00 81 993.4
20260905191502 52 0.0 0.0 0.00 0.00 0.00 81 993.4
20260905190502 53 0.0 0.0 0.00 0.00 0.00 81 993.4
20260905185502 53 0.0 0.0 0.00 0.00 0.00 81 993.5
20260905184502 53 0.0 0.0 0.00 0.00 0.00 81 993.6
20260905183502 53 0.0 0.0 0.00 0.00 0.00 81 993.6
20260905181502 54 0.0 0.0 0.00 0.00 0.00 80 993.6
20260905180502 55 0.0 0.0 0.00 0.00 0.00 80 993.5
20260905175502 55 0.0 0.0 0.00 0.00 0.00 80 993.5
20260905174502 55 0.0 0.0 0.00 0.00 0.00 80 993.7
20260905173502 56 0.0 0.0 0.00 0.00 0.00 80 993.9
20260905172502 56 0.0 0.0 0.00 0.00 0.00 79 994.1
20260905171502 56 0.0 0.0 0.00 0.00 0.00 79 994.1
20260905170502 55 0.0 0.0 0.00 0.00 0.00 78 994.2
20260905165502 55 0.0 0.0 0.00 0.00 0.00 77 994.1
20260905164502 56 0.0 0.0 0.00 0.00 0.00 74 994.0
20260905163502 62 0.0 0.0 0.00 0.00 0.00 63 993.8
20260905162502 63 0.0 0.0 0.00 0.00 0.00 63 992.5
20260905161502 64 0.0 0.0 0.00 0.00 0.00 63 992.4
20260905160502 65 0.0 0.0 0.00 0.00 0.00 64 992.3
20260905155502 65 0.0 0.0 0.00 0.00 0.00 60 992.2
20260905154502 65 0.0 0.0 0.00 0.00 0.00 60 991.9
20260905153502 66 0.0 0.0 0.00 0.00 0.00 58 991.8
20260905152502 67 0.0 0.0 0.00 0.00 0.00 59 991.7
20260905151502 68 0.0 0.0 0.00 0.00 0.00 58 991.6
20260905150502 67 0.0 0.0 0.00 0.00 0.00 59 991.6
20260905145502 67 0.0 0.0 0.00 0.00 0.00 57 991.6
20260905143502 68 0.0 0.0 0.00 0.00 0.00 58 991.5
20260905142502 68 0.0 0.0 0.00 0.00 0.00 57 991.5
20260905141502 68 0.0 0.0 0.00 0.00 0.00 58 991.4
20260905140502 68 0.0 0.0 0.00 0.00 0.00 58 991.4
20260905135502 68 0.0 0.0 0.00 0.00 0.00 59 991.4
20260905134502 68 0.0 0.0 0.00 0.00 0.00 59 991.3
20260905133502 68 0.0 0.0 0.00 0.00 0.00 58 991.2
20260905132502 67 0.0 0.0 0.00 0.00 0.00 58 991.1
20260905131502 67 0.0 0.0 0.00 0.00 0.00 52 991.1
20260905130502 68 0.0 0.0 0.00 0.00 0.00 47 991.1
20260905124502 68 0.0 0.0 0.00 0.00 0.00 58 991.1
20260905123502 69 0.0 0.0 0.00 0.00 0.00 58 991.0
20260905122502 69 0.0 0.0 0.00 0.00 0.00 56 991.0
20260905121502 69 0.0 0.0 0.00 0.00 0.00 57 991.0
20260905120502 69 0.0 0.0 0.00 0.00 0.00 53 991.0
20260905115502 69 0.0 0.0 0.00 0.00 0.00 58 990.9
20260905114502 69 0.0 0.0 0.00 0.00 0.00 57 990.8
20260905113502 68 0.0 0.0 0.00 0.00 0.00 58 990.7
20260905112502 68 0.0 0.0 0.00 0.00 0.00 54 990.6
20260905111502 66 0.0 0.0 0.00 0.00 0.00 59 990.5
20260905110502 67 0.0 0.0 0.00 0.00 0.00 61 990.4
20260905105502 67 0.0 0.0 0.00 0.00 0.00 57 990.5
20260905104502 67 0.0 0.0 0.00 0.00 0.00 58 990.4
20260905103502 66 0.0 0.0 0.00 0.00 0.00 61 990.3
20260905102502 68 0.0 0.0 0.00 0.00 0.00 57 990.3
20260905101502 68 0.0 0.0 0.00 0.00 0.00 60 990.4
20260905100502 68 0.0 0.0 0.00 0.00 0.00 61 990.5
20260905095502 67 0.0 0.0 0.00 0.00 0.00 60 990.5
20260905093502 67 0.0 0.0 0.00 0.00 0.00 62 990.4
20260905092502 67 0.0 0.0 0.00 0.00 0.00 64 990.2
20260905091502 66 0.0 0.0 0.00 0.00 0.00 62 990.0
20260905090502 66 0.0 0.0 0.00 0.00 0.00 64 990.0
20260905085502 66 0.0 0.0 0.00 0.00 0.00 63 990.0
20260905084502 67 0.0 0.0 0.00 0.00 0.00 61 990.0
20260905083502 66 0.0 0.0 0.00 0.00 0.00 64 989.9
20260905082502 66 0.0 0.0 0.00 0.00 0.00 64 989.9
20260905081502 66 0.0 0.0 0.00 0.00 0.00 64 989.8
20260905080502 66 0.0 0.0 0.00 0.00 0.00 64 989.7
20260905074502 65 0.0 0.0 0.00 0.00 0.00 66 989.4
20260905073502 65 0.0 0.0 0.00 0.00 0.00 66 989.2
20260905072502 65 0.0 0.0 0.00 0.00 0.00 65 989.1
20260905071502 64 0.0 0.0 0.00 0.00 0.00 66 988.9
20260905070502 64 0.0 0.0 0.00 0.00 0.00 65 988.6
20260905065502 64 0.0 0.0 0.00 0.00 0.00 64 988.6
20260905064502 64 0.0 0.0 0.00 0.00 0.00 67 988.4
20260905063502 64 0.0 0.0 0.00 0.00 0.00 68 988.3
20260905062502 63 0.0 0.0 0.00 0.00 0.00 67 988.1
20260905061502 63 0.0 0.0 0.00 0.00 0.00 68 987.7
20260905060502 63 0.0 0.0 0.00 0.00 0.00 67 987.7
20260905055502 63 0.0 0.0 0.00 0.00 0.00 71 987.5
20260905054502 63 0.0 0.0 0.00 0.00 0.00 71 987.4
20260905053502 62 0.0 0.0 0.00 0.00 0.00 71 987.2
20260905052502 62 0.0 0.0 0.00 0.00 0.00 71 987.0
20260905051502 62 0.0 0.0 0.00 0.00 0.00 72 986.9
20260905050502 62 0.0 0.0 0.00 0.00 0.00 73 986.6
20260905045502 62 0.0 0.0 0.00 0.00 0.00 73 986.5
20260905044502 62 0.0 0.0 0.00 0.00 0.00 73 986.5
20260905043502 62 0.0 0.0 0.00 0.00 0.00 74 986.3
20260905042502 62 0.0 0.0 0.00 0.00 0.00 74 986.0
20260905040502 63 0.0 0.0 0.00 0.00 0.00 74 985.5
20260905035502 63 0.0 0.0 0.00 0.00 0.00 74 985.4
20260905034502 63 0.0 0.0 0.00 0.00 0.00 74 985.4
20260905033502 63 0.0 0.0 0.00 0.00 0.00 74 985.4
20260905032502 63 0.0 0.0 0.00 0.00 0.00 74 985.2
20260905031502 63 0.0 0.0 0.00 0.00 0.00 74 984.9
20260905030502 63 0.0 0.0 0.00 0.00 0.00 74 984.8
20260905025502 63 0.0 0.0 0.00 0.00 0.00 74 984.7
20260905024502 63 0.0 0.0 0.00 0.00 0.00 73 984.8
20260905023502 63 0.0 0.0 0.00 0.00 0.00 73 984.9
20260905021502 64 0.0 0.0 0.00 0.00 0.00 71 984.9
20260905020502 64 0.0 0.0 0.00 0.00 0.00 71 985.0
20260905015502 64 0.0 0.0 0.00 0.00 0.00 71 984.9
20260905014502 64 0.0 0.0 0.00 0.00 0.00 71 984.7
20260905013502 64 0.0 0.0 0.00 0.00 0.00 70 984.7
20260905012502 64 0.0 0.0 0.00 0.00 0.00 70 984.7
20260905011502 64 0.0 0.0 0.00 0.00 0.00 69 984.6
20260905010502 64 0.0 0.0 0.00 0.00 0.00 69 984.6
20260905005502 64 0.0 0.0 0.00 0.00 0.00 69 984.6
20260905004502 65 0.0 0.0 0.00 0.00 0.00 70 984.5
20260905003502 65 0.0 0.0 0.00 0.00 0.00 69 984.4